sensor_id;sensor_type;location;lat;lon;timestamp;temperature;humidity
40059;SHT31;25763;49.972;8.568;2023-06-01T00:00:30;18.03;56.33
40059;SHT31;25763;49.972;8.568;2023-06-01T00:02:56;17.99;56.39
40059;SHT31;25763;49.972;8.568;2023-06-01T00:05:21;17.98;56.45
40059;SHT31;25763;49.972;8.568;2023-06-01T00:07:47;17.92;56.60
40059;SHT31;25763;49.972;8.568;2023-06-01T00:10:12;17.88;56.60
40059;SHT31;25763;49.972;8.568;2023-06-01T00:12:38;17.77;57.11
40059;SHT31;25763;49.972;8.568;2023-06-01T00:15:03;17.77;56.97
40059;SHT31;25763;49.972;8.568;2023-06-01T00:17:29;17.74;57.04
40059;SHT31;25763;49.972;8.568;2023-06-01T00:19:56;17.75;58.02
40059;SHT31;25763;49.972;8.568;2023-06-01T00:22:21;17.47;59.38
40059;SHT31;25763;49.972;8.568;2023-06-01T00:24:49;17.23;59.69
40059;SHT31;25763;49.972;8.568;2023-06-01T00:27:15;17.11;59.97
40059;SHT31;25763;49.972;8.568;2023-06-01T00:29:40;17.06;60.20
40059;SHT31;25763;49.972;8.568;2023-06-01T00:32:06;17.06;60.29
40059;SHT31;25763;49.972;8.568;2023-06-01T00:34:32;17.12;59.74
40059;SHT31;25763;49.972;8.568;2023-06-01T00:36:57;17.11;59.57
40059;SHT31;25763;49.972;8.568;2023-06-01T00:39:22;17.18;59.30
40059;SHT31;25763;49.972;8.568;2023-06-01T00:41:48;17.15;59.05
40059;SHT31;25763;49.972;8.568;2023-06-01T00:44:13;17.05;59.48
40059;SHT31;25763;49.972;8.568;2023-06-01T00:46:39;16.99;59.93
40059;SHT31;25763;49.972;8.568;2023-06-01T00:49:04;16.80;60.56
40059;SHT31;25763;49.972;8.568;2023-06-01T00:51:32;16.67;60.62
40059;SHT31;25763;49.972;8.568;2023-06-01T00:53:58;16.59;61.00
40059;SHT31;25763;49.972;8.568;2023-06-01T00:56:24;16.46;61.39
40059;SHT31;25763;49.972;8.568;2023-06-01T00:58:50;16.38;61.93
40059;SHT31;25763;49.972;8.568;2023-06-01T01:01:16;16.46;61.76
40059;SHT31;25763;49.972;8.568;2023-06-01T01:03:46;16.49;61.85
40059;SHT31;25763;49.972;8.568;2023-06-01T01:06:22;16.55;61.64
40059;SHT31;25763;49.972;8.568;2023-06-01T01:09:09;16.61;61.32
40059;SHT31;25763;49.972;8.568;2023-06-01T01:11:37;16.42;62.50
40059;SHT31;25763;49.972;8.568;2023-06-01T01:14:10;16.36;62.61
40059;SHT31;25763;49.972;8.568;2023-06-01T01:16:50;16.38;62.61
40059;SHT31;25763;49.972;8.568;2023-06-01T01:31:13;16.11;63.77
40059;SHT31;25763;49.972;8.568;2023-06-01T01:33:41;16.07;63.91
40059;SHT31;25763;49.972;8.568;2023-06-01T01:36:08;16.04;64.19
40059;SHT31;25763;49.972;8.568;2023-06-01T01:38:34;16.14;63.49
40059;SHT31;25763;49.972;8.568;2023-06-01T01:41:01;16.18;63.88
40059;SHT31;25763;49.972;8.568;2023-06-01T01:43:26;16.18;64.11
40059;SHT31;25763;49.972;8.568;2023-06-01T01:45:59;16.08;64.39
40059;SHT31;25763;49.972;8.568;2023-06-01T01:48:50;16.08;64.61
40059;SHT31;25763;49.972;8.568;2023-06-01T01:51:24;16.00;64.73
40059;SHT31;25763;49.972;8.568;2023-06-01T01:53:52;15.90;65.08
40059;SHT31;25763;49.972;8.568;2023-06-01T01:56:18;15.87;65.15
40059;SHT31;25763;49.972;8.568;2023-06-01T01:58:45;15.94;65.09
40059;SHT31;25763;49.972;8.568;2023-06-01T02:01:12;15.94;65.04
40059;SHT31;25763;49.972;8.568;2023-06-01T02:03:38;15.88;65.29
40059;SHT31;25763;49.972;8.568;2023-06-01T02:06:03;15.93;65.17
40059;SHT31;25763;49.972;8.568;2023-06-01T02:08:28;15.86;65.26
40059;SHT31;25763;49.972;8.568;2023-06-01T02:10:54;15.84;65.50
40059;SHT31;25763;49.972;8.568;2023-06-01T02:13:19;15.77;65.82
40059;SHT31;25763;49.972;8.568;2023-06-01T02:15:45;15.87;65.66
40059;SHT31;25763;49.972;8.568;2023-06-01T02:18:10;15.88;65.97
40059;SHT31;25763;49.972;8.568;2023-06-01T02:20:36;15.94;65.20
40059;SHT31;25763;49.972;8.568;2023-06-01T02:23:01;15.93;65.30
40059;SHT31;25763;49.972;8.568;2023-06-01T02:25:27;16.01;64.57
40059;SHT31;25763;49.972;8.568;2023-06-01T02:27:52;16.07;64.35
40059;SHT31;25763;49.972;8.568;2023-06-01T02:30:17;16.07;64.10
40059;SHT31;25763;49.972;8.568;2023-06-01T02:32:43;16.11;64.09
40059;SHT31;25763;49.972;8.568;2023-06-01T02:35:10;16.04;64.60
40059;SHT31;25763;49.972;8.568;2023-06-01T02:37:36;16.08;64.02
40059;SHT31;25763;49.972;8.568;2023-06-01T02:40:01;16.00;64.51
40059;SHT31;25763;49.972;8.568;2023-06-01T02:42:26;15.90;65.33
40059;SHT31;25763;49.972;8.568;2023-06-01T02:44:52;15.84;65.95
40059;SHT31;25763;49.972;8.568;2023-06-01T02:47:17;15.73;66.10
40059;SHT31;25763;49.972;8.568;2023-06-01T02:49:42;15.69;66.00
40059;SHT31;25763;49.972;8.568;2023-06-01T02:52:08;15.67;65.52
40059;SHT31;25763;49.972;8.568;2023-06-01T02:54:33;15.74;65.96
40059;SHT31;25763;49.972;8.568;2023-06-01T02:56:58;15.66;65.99
40059;SHT31;25763;49.972;8.568;2023-06-01T02:59:24;15.59;66.19
40059;SHT31;25763;49.972;8.568;2023-06-01T03:01:49;15.61;66.03
40059;SHT31;25763;49.972;8.568;2023-06-01T03:04:15;15.65;66.08
40059;SHT31;25763;49.972;8.568;2023-06-01T03:06:40;15.59;66.19
40059;SHT31;25763;49.972;8.568;2023-06-01T03:09:06;15.55;66.25
40059;SHT31;25763;49.972;8.568;2023-06-01T03:11:40;15.56;66.22
40059;SHT31;25763;49.972;8.568;2023-06-01T03:14:05;15.52;66.49
40059;SHT31;25763;49.972;8.568;2023-06-01T03:16:31;15.55;66.26
40059;SHT31;25763;49.972;8.568;2023-06-01T03:18:56;15.63;66.46
40059;SHT31;25763;49.972;8.568;2023-06-01T03:21:21;15.71;66.37
40059;SHT31;25763;49.972;8.568;2023-06-01T03:23:47;15.59;66.05
40059;SHT31;25763;49.972;8.568;2023-06-01T03:26:12;15.71;66.31
40059;SHT31;25763;49.972;8.568;2023-06-01T03:28:39;15.79;66.15
40059;SHT31;25763;49.972;8.568;2023-06-01T03:31:04;15.73;66.25
40059;SHT31;25763;49.972;8.568;2023-06-01T03:33:30;15.76;66.62
40059;SHT31;25763;49.972;8.568;2023-06-01T03:35:55;15.67;66.26
40059;SHT31;25763;49.972;8.568;2023-06-01T03:38:21;15.66;66.08
40059;SHT31;25763;49.972;8.568;2023-06-01T03:40:47;15.67;66.35
40059;SHT31;25763;49.972;8.568;2023-06-01T03:43:12;15.69;66.14
40059;SHT31;25763;49.972;8.568;2023-06-01T03:45:37;15.62;66.15
40059;SHT31;25763;49.972;8.568;2023-06-01T03:48:03;15.58;66.41
40059;SHT31;25763;49.972;8.568;2023-06-01T03:50:29;15.48;66.84
40059;SHT31;25763;49.972;8.568;2023-06-01T03:52:54;15.48;66.83
40059;SHT31;25763;49.972;8.568;2023-06-01T03:55:20;15.46;66.73
40059;SHT31;25763;49.972;8.568;2023-06-01T03:57:46;15.49;66.63
40059;SHT31;25763;49.972;8.568;2023-06-01T04:00:11;15.41;66.94
40059;SHT31;25763;49.972;8.568;2023-06-01T04:02:54;15.46;66.99
40059;SHT31;25763;49.972;8.568;2023-06-01T04:05:21;15.44;66.96
40059;SHT31;25763;49.972;8.568;2023-06-01T04:07:48;15.48;66.85
40059;SHT31;25763;49.972;8.568;2023-06-01T04:10:14;15.49;66.77
40059;SHT31;25763;49.972;8.568;2023-06-01T04:12:42;15.62;66.46
40059;SHT31;25763;49.972;8.568;2023-06-01T04:15:08;15.53;66.97
40059;SHT31;25763;49.972;8.568;2023-06-01T04:17:38;15.69;66.46
40059;SHT31;25763;49.972;8.568;2023-06-01T04:20:04;15.80;66.51
40059;SHT31;25763;49.972;8.568;2023-06-01T04:22:32;15.86;66.09
40059;SHT31;25763;49.972;8.568;2023-06-01T04:24:57;15.93;66.19
40059;SHT31;25763;49.972;8.568;2023-06-01T04:27:23;15.94;66.05
40059;SHT31;25763;49.972;8.568;2023-06-01T04:29:50;15.90;66.15
40059;SHT31;25763;49.972;8.568;2023-06-01T04:32:15;15.90;66.31
40059;SHT31;25763;49.972;8.568;2023-06-01T04:34:46;16.01;66.28
40059;SHT31;25763;49.972;8.568;2023-06-01T04:37:13;16.07;66.26
40059;SHT31;25763;49.972;8.568;2023-06-01T04:39:40;16.11;65.88
40059;SHT31;25763;49.972;8.568;2023-06-01T04:42:07;16.15;65.85
40059;SHT31;25763;49.972;8.568;2023-06-01T04:44:33;16.11;65.46
40059;SHT31;25763;49.972;8.568;2023-06-01T04:46:59;16.17;65.39
40059;SHT31;25763;49.972;8.568;2023-06-01T04:49:29;16.29;65.52
40059;SHT31;25763;49.972;8.568;2023-06-01T04:51:55;16.38;65.30
40059;SHT31;25763;49.972;8.568;2023-06-01T04:54:20;16.40;65.33
40059;SHT31;25763;49.972;8.568;2023-06-01T04:56:45;16.45;64.88
40059;SHT31;25763;49.972;8.568;2023-06-01T04:59:11;16.46;64.71
40059;SHT31;25763;49.972;8.568;2023-06-01T05:01:37;16.53;64.32
40059;SHT31;25763;49.972;8.568;2023-06-01T05:04:03;16.60;64.27
40059;SHT31;25763;49.972;8.568;2023-06-01T05:06:29;16.70;64.25
40059;SHT31;25763;49.972;8.568;2023-06-01T05:08:54;16.65;64.13
40059;SHT31;25763;49.972;8.568;2023-06-01T05:11:20;16.80;64.34
40059;SHT31;25763;49.972;8.568;2023-06-01T05:13:46;16.90;64.09
40059;SHT31;25763;49.972;8.568;2023-06-01T05:16:12;17.06;63.85
40059;SHT31;25763;49.972;8.568;2023-06-01T05:18:38;17.18;64.11
40059;SHT31;25763;49.972;8.568;2023-06-01T05:21:03;17.16;63.65
40059;SHT31;25763;49.972;8.568;2023-06-01T05:23:29;17.16;63.46
40059;SHT31;25763;49.972;8.568;2023-06-01T05:25:55;17.25;63.43
40059;SHT31;25763;49.972;8.568;2023-06-01T05:28:30;17.26;63.25
40059;SHT31;25763;49.972;8.568;2023-06-01T05:30:56;17.41;63.37
40059;SHT31;25763;49.972;8.568;2023-06-01T05:33:22;17.60;63.15
40059;SHT31;25763;49.972;8.568;2023-06-01T05:35:47;17.61;62.53
40059;SHT31;25763;49.972;8.568;2023-06-01T05:38:13;17.85;62.80
40059;SHT31;25763;49.972;8.568;2023-06-01T05:40:38;17.88;61.71
40059;SHT31;25763;49.972;8.568;2023-06-01T05:43:03;17.86;61.40
40059;SHT31;25763;49.972;8.568;2023-06-01T05:45:29;18.10;61.41
40059;SHT31;25763;49.972;8.568;2023-06-01T05:47:54;18.14;60.91
40059;SHT31;25763;49.972;8.568;2023-06-01T05:50:20;18.09;60.62
40059;SHT31;25763;49.972;8.568;2023-06-01T05:52:45;18.23;60.44
40059;SHT31;25763;49.972;8.568;2023-06-01T05:55:11;18.31;60.63
40059;SHT31;25763;49.972;8.568;2023-06-01T05:57:36;18.38;59.95
40059;SHT31;25763;49.972;8.568;2023-06-01T06:00:02;18.59;59.64
40059;SHT31;25763;49.972;8.568;2023-06-01T06:02:32;18.54;58.39
40059;SHT31;25763;49.972;8.568;2023-06-01T06:04:58;18.71;58.57
40059;SHT31;25763;49.972;8.568;2023-06-01T06:07:23;18.87;59.26
40059;SHT31;25763;49.972;8.568;2023-06-01T06:09:48;18.89;58.89
40059;SHT31;25763;49.972;8.568;2023-06-01T06:12:14;18.77;57.90
40059;SHT31;25763;49.972;8.568;2023-06-01T06:14:39;18.92;57.54
40059;SHT31;25763;49.972;8.568;2023-06-01T06:17:05;19.00;57.48
40059;SHT31;25763;49.972;8.568;2023-06-01T06:19:30;19.11;57.47
40059;SHT31;25763;49.972;8.568;2023-06-01T06:21:55;19.44;57.38
40059;SHT31;25763;49.972;8.568;2023-06-01T06:24:21;19.38;56.28
40059;SHT31;25763;49.972;8.568;2023-06-01T06:26:47;19.65;55.30
40059;SHT31;25763;49.972;8.568;2023-06-01T06:29:12;19.77;55.34
40059;SHT31;25763;49.972;8.568;2023-06-01T06:31:37;19.94;54.49
40059;SHT31;25763;49.972;8.568;2023-06-01T06:34:03;19.77;54.95
40059;SHT31;25763;49.972;8.568;2023-06-01T06:36:28;19.90;54.92
40059;SHT31;25763;49.972;8.568;2023-06-01T06:38:53;19.91;54.06
40059;SHT31;25763;49.972;8.568;2023-06-01T06:41:19;20.05;53.55
40059;SHT31;25763;49.972;8.568;2023-06-01T06:43:46;19.73;54.97
40059;SHT31;25763;49.972;8.568;2023-06-01T06:46:11;20.20;55.51
40059;SHT31;25763;49.972;8.568;2023-06-01T06:48:36;20.04;54.18
40059;SHT31;25763;49.972;8.568;2023-06-01T06:51:02;20.29;54.92
40059;SHT31;25763;49.972;8.568;2023-06-01T06:53:27;20.49;53.27
40059;SHT31;25763;49.972;8.568;2023-06-01T06:55:53;20.40;53.42
40059;SHT31;25763;49.972;8.568;2023-06-01T06:58:18;20.56;52.96
40059;SHT31;25763;49.972;8.568;2023-06-01T07:00:43;20.70;53.81
40059;SHT31;25763;49.972;8.568;2023-06-01T07:03:09;20.98;52.03
40059;SHT31;25763;49.972;8.568;2023-06-01T07:05:35;21.24;52.87
40059;SHT31;25763;49.972;8.568;2023-06-01T07:08:00;21.54;52.69
40059;SHT31;25763;49.972;8.568;2023-06-01T07:10:26;21.29;52.74
40059;SHT31;25763;49.972;8.568;2023-06-01T07:12:51;20.80;51.83
40059;SHT31;25763;49.972;8.568;2023-06-01T07:15:17;20.76;52.23
40059;SHT31;25763;49.972;8.568;2023-06-01T07:17:42;21.06;52.51
40059;SHT31;25763;49.972;8.568;2023-06-01T07:20:08;21.09;51.15
40059;SHT31;25763;49.972;8.568;2023-06-01T07:22:37;21.15;50.72
40059;SHT31;25763;49.972;8.568;2023-06-01T07:25:03;21.46;50.82
40059;SHT31;25763;49.972;8.568;2023-06-01T07:27:28;21.73;51.41
40059;SHT31;25763;49.972;8.568;2023-06-01T07:29:54;21.91;50.57
40059;SHT31;25763;49.972;8.568;2023-06-01T07:32:23;22.05;49.44
40059;SHT31;25763;49.972;8.568;2023-06-01T07:34:48;22.08;49.86
40059;SHT31;25763;49.972;8.568;2023-06-01T07:37:14;22.12;49.53
40059;SHT31;25763;49.972;8.568;2023-06-01T07:39:39;22.09;48.93
40059;SHT31;25763;49.972;8.568;2023-06-01T07:42:05;22.37;50.04
40059;SHT31;25763;49.972;8.568;2023-06-01T07:44:30;22.53;50.70
40059;SHT31;25763;49.972;8.568;2023-06-01T07:46:56;22.61;47.86
40059;SHT31;25763;49.972;8.568;2023-06-01T07:49:21;22.41;48.97
40059;SHT31;25763;49.972;8.568;2023-06-01T07:51:46;22.53;49.38
40059;SHT31;25763;49.972;8.568;2023-06-01T07:54:12;22.81;48.55
40059;SHT31;25763;49.972;8.568;2023-06-01T07:56:38;22.83;49.09
40059;SHT31;25763;49.972;8.568;2023-06-01T07:59:04;22.58;47.91
40059;SHT31;25763;49.972;8.568;2023-06-01T08:01:30;22.68;47.49
40059;SHT31;25763;49.972;8.568;2023-06-01T08:03:55;22.71;47.60
40059;SHT31;25763;49.972;8.568;2023-06-01T08:06:21;22.75;46.21
40059;SHT31;25763;49.972;8.568;2023-06-01T08:08:48;22.72;47.14
40059;SHT31;25763;49.972;8.568;2023-06-01T08:11:15;22.60;47.08
40059;SHT31;25763;49.972;8.568;2023-06-01T08:13:40;22.93;47.71
40059;SHT31;25763;49.972;8.568;2023-06-01T08:16:06;23.16;48.36
40059;SHT31;25763;49.972;8.568;2023-06-01T08:18:32;23.63;47.88
40059;SHT31;25763;49.972;8.568;2023-06-01T08:20:58;23.28;46.19
40059;SHT31;25763;49.972;8.568;2023-06-01T08:23:26;23.38;45.75
40059;SHT31;25763;49.972;8.568;2023-06-01T08:25:51;23.63;47.11
40059;SHT31;25763;49.972;8.568;2023-06-01T08:28:17;23.55;45.50
40059;SHT31;25763;49.972;8.568;2023-06-01T08:30:42;23.41;46.13
40059;SHT31;25763;49.972;8.568;2023-06-01T08:33:08;23.37;45.62
40059;SHT31;25763;49.972;8.568;2023-06-01T08:35:33;23.48;45.55
40059;SHT31;25763;49.972;8.568;2023-06-01T08:38:00;23.85;46.44
40059;SHT31;25763;49.972;8.568;2023-06-01T08:40:26;23.69;44.28
40059;SHT31;25763;49.972;8.568;2023-06-01T08:42:59;24.29;45.60
40059;SHT31;25763;49.972;8.568;2023-06-01T08:45:25;24.52;45.27
40059;SHT31;25763;49.972;8.568;2023-06-01T08:47:55;24.48;44.07
40059;SHT31;25763;49.972;8.568;2023-06-01T08:50:21;24.62;44.72
40059;SHT31;25763;49.972;8.568;2023-06-01T08:52:47;24.27;45.13
40059;SHT31;25763;49.972;8.568;2023-06-01T08:55:14;23.82;46.04
40059;SHT31;25763;49.972;8.568;2023-06-01T08:57:41;24.21;45.52
40059;SHT31;25763;49.972;8.568;2023-06-01T09:00:08;24.65;46.66
40059;SHT31;25763;49.972;8.568;2023-06-01T09:02:35;24.16;42.68
40059;SHT31;25763;49.972;8.568;2023-06-01T09:05:01;24.56;44.15
40059;SHT31;25763;49.972;8.568;2023-06-01T09:07:27;24.65;43.94
40059;SHT31;25763;49.972;8.568;2023-06-01T09:09:53;24.83;42.70
40059;SHT31;25763;49.972;8.568;2023-06-01T09:12:23;24.38;42.63
40059;SHT31;25763;49.972;8.568;2023-06-01T09:14:50;24.82;43.23
40059;SHT31;25763;49.972;8.568;2023-06-01T09:17:23;24.94;43.07
40059;SHT31;25763;49.972;8.568;2023-06-01T09:19:54;24.59;42.99
40059;SHT31;25763;49.972;8.568;2023-06-01T09:22:20;25.00;43.44
40059;SHT31;25763;49.972;8.568;2023-06-01T09:24:59;24.82;42.26
40059;SHT31;25763;49.972;8.568;2023-06-01T09:27:25;24.69;42.68
40059;SHT31;25763;49.972;8.568;2023-06-01T09:29:58;25.06;44.11
40059;SHT31;25763;49.972;8.568;2023-06-01T09:32:26;25.24;42.30
40059;SHT31;25763;49.972;8.568;2023-06-01T09:34:51;25.31;42.54
40059;SHT31;25763;49.972;8.568;2023-06-01T09:37:17;25.14;41.15
40059;SHT31;25763;49.972;8.568;2023-06-01T09:39:42;24.91;42.22
40059;SHT31;25763;49.972;8.568;2023-06-01T09:42:08;25.15;41.98
40059;SHT31;25763;49.972;8.568;2023-06-01T09:44:41;25.41;41.90
40059;SHT31;25763;49.972;8.568;2023-06-01T09:47:08;25.27;40.28
40059;SHT31;25763;49.972;8.568;2023-06-01T09:49:40;25.70;40.83
40059;SHT31;25763;49.972;8.568;2023-06-01T09:54:41;25.55;40.49
40059;SHT31;25763;49.972;8.568;2023-06-01T09:57:08;25.27;40.47
40059;SHT31;25763;49.972;8.568;2023-06-01T09:59:44;25.81;40.82
40059;SHT31;25763;49.972;8.568;2023-06-01T10:02:18;26.25;39.11
40059;SHT31;25763;49.972;8.568;2023-06-01T10:04:51;26.47;37.72
40059;SHT31;25763;49.972;8.568;2023-06-01T10:07:26;26.90;37.74
40059;SHT31;25763;49.972;8.568;2023-06-01T10:09:56;27.12;38.33
40059;SHT31;25763;49.972;8.568;2023-06-01T10:12:24;26.83;38.70
40059;SHT31;25763;49.972;8.568;2023-06-01T10:14:50;27.14;38.07
40059;SHT31;25763;49.972;8.568;2023-06-01T10:17:17;26.83;40.35
40059;SHT31;25763;49.972;8.568;2023-06-01T10:19:44;26.14;36.32
40059;SHT31;25763;49.972;8.568;2023-06-01T10:22:11;26.86;36.48
40059;SHT31;25763;49.972;8.568;2023-06-01T10:24:37;27.23;32.51
40059;SHT31;25763;49.972;8.568;2023-06-01T10:27:20;27.38;33.79
40059;SHT31;25763;49.972;8.568;2023-06-01T10:29:47;26.77;33.94
40059;SHT31;25763;49.972;8.568;2023-06-01T10:32:41;27.36;35.56
40059;SHT31;25763;49.972;8.568;2023-06-01T10:35:08;27.49;32.98
40059;SHT31;25763;49.972;8.568;2023-06-01T10:37:35;27.91;33.90
40059;SHT31;25763;49.972;8.568;2023-06-01T10:42:45;27.84;31.50
40059;SHT31;25763;49.972;8.568;2023-06-01T10:45:41;27.26;32.18
40059;SHT31;25763;49.972;8.568;2023-06-01T10:48:11;27.61;33.68
40059;SHT31;25763;49.972;8.568;2023-06-01T10:50:38;27.88;32.85
40059;SHT31;25763;49.972;8.568;2023-06-01T10:56:23;27.49;33.31
40059;SHT31;25763;49.972;8.568;2023-06-01T11:01:43;29.07;33.44
40059;SHT31;25763;49.972;8.568;2023-06-01T11:04:09;29.18;31.28
40059;SHT31;25763;49.972;8.568;2023-06-01T11:06:39;28.79;30.60
40059;SHT31;25763;49.972;8.568;2023-06-01T11:09:07;28.58;31.70
40059;SHT31;25763;49.972;8.568;2023-06-01T11:14:25;29.27;31.03
40059;SHT31;25763;49.972;8.568;2023-06-01T11:16:54;29.16;30.36
40059;SHT31;25763;49.972;8.568;2023-06-01T11:19:21;29.62;30.26
40059;SHT31;25763;49.972;8.568;2023-06-01T11:21:54;29.63;31.14
40059;SHT31;25763;49.972;8.568;2023-06-01T11:24:20;29.76;31.26
40059;SHT31;25763;49.972;8.568;2023-06-01T11:26:48;29.72;29.29
40059;SHT31;25763;49.972;8.568;2023-06-01T11:29:22;29.83;28.82
40059;SHT31;25763;49.972;8.568;2023-06-01T11:31:49;30.07;27.92
40059;SHT31;25763;49.972;8.568;2023-06-01T11:34:18;29.62;27.11
40059;SHT31;25763;49.972;8.568;2023-06-01T11:36:49;29.44;28.82
40059;SHT31;25763;49.972;8.568;2023-06-01T11:39:23;29.16;28.70
40059;SHT31;25763;49.972;8.568;2023-06-01T11:42:02;29.63;28.74
40059;SHT31;25763;49.972;8.568;2023-06-01T11:44:30;29.52;28.76
40059;SHT31;25763;49.972;8.568;2023-06-01T11:46:57;29.70;28.88
40059;SHT31;25763;49.972;8.568;2023-06-01T11:49:23;30.06;29.72
40059;SHT31;25763;49.972;8.568;2023-06-01T11:51:49;30.45;28.81
40059;SHT31;25763;49.972;8.568;2023-06-01T11:54:16;30.75;27.85
40059;SHT31;25763;49.972;8.568;2023-06-01T11:56:46;30.70;28.82
40059;SHT31;25763;49.972;8.568;2023-06-01T11:59:11;31.07;28.46
40059;SHT31;25763;49.972;8.568;2023-06-01T12:01:42;30.04;26.66
40059;SHT31;25763;49.972;8.568;2023-06-01T12:04:22;30.09;25.76
40059;SHT31;25763;49.972;8.568;2023-06-01T12:06:48;28.95;25.10
40059;SHT31;25763;49.972;8.568;2023-06-01T12:09:14;28.74;23.62
40059;SHT31;25763;49.972;8.568;2023-06-01T12:11:42;28.65;25.99
40059;SHT31;25763;49.972;8.568;2023-06-01T12:14:10;28.34;28.88
40059;SHT31;25763;49.972;8.568;2023-06-01T12:16:56;28.09;27.75
40059;SHT31;25763;49.972;8.568;2023-06-01T12:19:22;28.69;29.39
40059;SHT31;25763;49.972;8.568;2023-06-01T12:21:48;29.40;28.27
40059;SHT31;25763;49.972;8.568;2023-06-01T12:24:15;28.65;27.26
40059;SHT31;25763;49.972;8.568;2023-06-01T12:26:40;28.29;30.23
40059;SHT31;25763;49.972;8.568;2023-06-01T12:29:06;28.37;29.75
40059;SHT31;25763;49.972;8.568;2023-06-01T12:31:32;27.60;28.44
40059;SHT31;25763;49.972;8.568;2023-06-01T12:33:57;27.38;28.89
40059;SHT31;25763;49.972;8.568;2023-06-01T12:36:35;27.70;28.52
40059;SHT31;25763;49.972;8.568;2023-06-01T12:39:03;27.85;28.00
40059;SHT31;25763;49.972;8.568;2023-06-01T12:41:30;27.88;28.15
40059;SHT31;25763;49.972;8.568;2023-06-01T12:43:57;27.88;29.04
40059;SHT31;25763;49.972;8.568;2023-06-01T12:46:24;28.19;29.08
40059;SHT31;25763;49.972;8.568;2023-06-01T12:48:51;28.16;30.23
40059;SHT31;25763;49.972;8.568;2023-06-01T12:51:19;28.75;29.14
40059;SHT31;25763;49.972;8.568;2023-06-01T12:53:45;28.72;28.37
40059;SHT31;25763;49.972;8.568;2023-06-01T12:56:11;29.03;27.81
40059;SHT31;25763;49.972;8.568;2023-06-01T12:58:37;29.50;29.76
40059;SHT31;25763;49.972;8.568;2023-06-01T13:01:03;29.86;26.05
40059;SHT31;25763;49.972;8.568;2023-06-01T13:03:28;29.88;25.79
40059;SHT31;25763;49.972;8.568;2023-06-01T13:05:54;30.07;26.59
40059;SHT31;25763;49.972;8.568;2023-06-01T13:08:20;29.27;29.65
40059;SHT31;25763;49.972;8.568;2023-06-01T13:10:46;29.54;29.34
40059;SHT31;25763;49.972;8.568;2023-06-01T13:13:11;30.01;28.29
40059;SHT31;25763;49.972;8.568;2023-06-01T13:15:44;30.41;29.30
40059;SHT31;25763;49.972;8.568;2023-06-01T13:18:11;30.29;28.73
40059;SHT31;25763;49.972;8.568;2023-06-01T13:20:37;29.30;28.93
40059;SHT31;25763;49.972;8.568;2023-06-01T13:23:04;29.88;29.49
40059;SHT31;25763;49.972;8.568;2023-06-01T13:25:29;30.49;29.60
40059;SHT31;25763;49.972;8.568;2023-06-01T13:27:55;29.23;29.43
40059;SHT31;25763;49.972;8.568;2023-06-01T13:30:21;28.81;30.08
40059;SHT31;25763;49.972;8.568;2023-06-01T13:32:47;28.79;29.44
40059;SHT31;25763;49.972;8.568;2023-06-01T13:35:12;28.44;29.97
40059;SHT31;25763;49.972;8.568;2023-06-01T13:37:37;28.57;30.25
40059;SHT31;25763;49.972;8.568;2023-06-01T13:40:04;28.92;30.58
40059;SHT31;25763;49.972;8.568;2023-06-01T13:42:31;28.69;29.75
40059;SHT31;25763;49.972;8.568;2023-06-01T13:44:58;29.13;31.34
40059;SHT31;25763;49.972;8.568;2023-06-01T13:47:23;29.58;30.20
40059;SHT31;25763;49.972;8.568;2023-06-01T13:49:49;28.68;30.48
40059;SHT31;25763;49.972;8.568;2023-06-01T13:52:14;29.02;30.17
40059;SHT31;25763;49.972;8.568;2023-06-01T13:54:40;29.57;31.95
40059;SHT31;25763;49.972;8.568;2023-06-01T13:57:06;30.35;30.94
40059;SHT31;25763;49.972;8.568;2023-06-01T13:59:32;30.79;30.36
40059;SHT31;25763;49.972;8.568;2023-06-01T14:02:00;30.29;30.01
40059;SHT31;25763;49.972;8.568;2023-06-01T14:04:25;29.54;30.29
40059;SHT31;25763;49.972;8.568;2023-06-01T14:06:51;29.03;30.49
40059;SHT31;25763;49.972;8.568;2023-06-01T14:09:17;29.59;30.72
40059;SHT31;25763;49.972;8.568;2023-06-01T14:11:42;29.86;29.50
40059;SHT31;25763;49.972;8.568;2023-06-01T14:14:08;29.33;29.38
40059;SHT31;25763;49.972;8.568;2023-06-01T14:16:33;29.70;29.77
40059;SHT31;25763;49.972;8.568;2023-06-01T14:18:58;30.48;29.70
40059;SHT31;25763;49.972;8.568;2023-06-01T14:21:24;30.97;29.82
40059;SHT31;25763;49.972;8.568;2023-06-01T14:23:49;30.61;30.25
40059;SHT31;25763;49.972;8.568;2023-06-01T14:26:15;30.55;29.59
40059;SHT31;25763;49.972;8.568;2023-06-01T14:28:40;30.07;29.64
40059;SHT31;25763;49.972;8.568;2023-06-01T14:31:05;30.25;30.05
40059;SHT31;25763;49.972;8.568;2023-06-01T14:33:31;30.68;30.84
40059;SHT31;25763;49.972;8.568;2023-06-01T14:35:56;30.95;31.00
40059;SHT31;25763;49.972;8.568;2023-06-01T14:38:21;29.89;30.45
40059;SHT31;25763;49.972;8.568;2023-06-01T14:40:47;30.47;30.82
40059;SHT31;25763;49.972;8.568;2023-06-01T14:43:12;30.18;30.96
40059;SHT31;25763;49.972;8.568;2023-06-01T14:45:38;30.76;31.77
40059;SHT31;25763;49.972;8.568;2023-06-01T14:48:03;31.08;29.60
40059;SHT31;25763;49.972;8.568;2023-06-01T14:50:28;31.41;30.28
40059;SHT31;25763;49.972;8.568;2023-06-01T14:52:54;31.70;29.98
40059;SHT31;25763;49.972;8.568;2023-06-01T14:55:25;32.05;29.49
40059;SHT31;25763;49.972;8.568;2023-06-01T14:57:51;31.32;30.54
40059;SHT31;25763;49.972;8.568;2023-06-01T15:00:17;31.63;30.60
40059;SHT31;25763;49.972;8.568;2023-06-01T15:02:43;31.95;29.88
40059;SHT31;25763;49.972;8.568;2023-06-01T15:05:11;32.04;29.01
40059;SHT31;25763;49.972;8.568;2023-06-01T15:07:36;31.62;30.64
40059;SHT31;25763;49.972;8.568;2023-06-01T15:10:01;31.65;30.96
40059;SHT31;25763;49.972;8.568;2023-06-01T15:12:28;31.87;30.18
40059;SHT31;25763;49.972;8.568;2023-06-01T15:14:53;31.97;30.34
40059;SHT31;25763;49.972;8.568;2023-06-01T15:17:18;31.67;30.15
40059;SHT31;25763;49.972;8.568;2023-06-01T15:19:43;31.70;30.33
40059;SHT31;25763;49.972;8.568;2023-06-01T15:22:10;31.31;30.68
40059;SHT31;25763;49.972;8.568;2023-06-01T15:24:36;31.45;31.17
40059;SHT31;25763;49.972;8.568;2023-06-01T15:27:02;31.70;30.76
40059;SHT31;25763;49.972;8.568;2023-06-01T15:29:27;32.07;30.74
40059;SHT31;25763;49.972;8.568;2023-06-01T15:31:53;31.25;30.94
40059;SHT31;25763;49.972;8.568;2023-06-01T15:34:18;30.11;32.27
40059;SHT31;25763;49.972;8.568;2023-06-01T15:36:43;30.48;33.34
40059;SHT31;25763;49.972;8.568;2023-06-01T15:39:09;31.03;33.71
40059;SHT31;25763;49.972;8.568;2023-06-01T15:41:35;31.15;33.31
40059;SHT31;25763;49.972;8.568;2023-06-01T15:44:00;31.53;33.42
40059;SHT31;25763;49.972;8.568;2023-06-01T15:46:26;31.72;32.86
40059;SHT31;25763;49.972;8.568;2023-06-01T15:48:52;31.74;33.36
40059;SHT31;25763;49.972;8.568;2023-06-01T15:51:17;31.55;33.50
40059;SHT31;25763;49.972;8.568;2023-06-01T15:53:43;31.49;34.16